Accueil
METAR-TAF:

METAR-TAF

Aéroports :

Apia, Upolu, Samoa

Aéroport d'Apia

latitude: 13-49S, longitude: 172-00W, altitude: 5 m

Observation

Le bulletin a été fait il y a 1 heure et 4 minutes, à 20:00 UTC
Vent 4 kt de est/sud-est
Température 30°C
Humidité 70%
Pression 1011 hPa
Visibilité 10 km ou plus
Quelques nuages à une hauteur de 2300 ft

METAR: NSFA 242000Z 11004KT 9999 FEW023 30/24 Q1011 NOSIG

Heure: 10:04 (21:04 UTC)

Prévision

Le bulletin a été fait il y a 3 heures et 36 minutes, à 17:28 UTC
Prévision valable du 24 à 18 UTC au 25 à 18 UTC
Vent 5 kt de sud/sud-est
Visibilité 10 km ou plus
Nuages épars à une hauteur de 2200 ft

TAF: NSFA 241728Z 2418/2518 15005KT 9999 SCT022

Observations et prévisions météorologiques de plus de 4000 aéroports (messages METAR et TAF).

Les stations disponibles sont représentées par des disques jaunes et rouges sur la carte.

Passer la souris dessus pour voir le nom de la station.

Cliquer dessus pour voir les observations et prévisions météorologiques.

Pour changer de carte: cliquez sur les boutons verts avec une croix noire pour zoomer, sur le bouton vert avec un tiret pour effectuer un zoom arrière, ou sur les flèches vertes pour les cartes adjacentes.


METAR-TAF: